Time;durP1;ratioP1;P1;durP2;ratioP2;P2;SDS_P1;SDS_P2;PMS_P1;PMS_P2;Temp;Humidity;BMP_temperature;BMP_pressure;BME280_temperature;BME280_humidity;BME280_pressure;Samples;Min_cycle;Max_cycle;Signal;HPM_P1;HPM_P2
2021/11/25 00:00:08;;;;;;;;;;;23.40;51.80;;;;;;1570634;75;713;-60
2021/11/25 00:02:10;;;;;;;;;;;23.50;52.00;;;;;;1569429;75;742;-59
2021/11/25 00:04:12;;;;;;;;;;;23.50;52.00;;;;;;1575377;74;735;-61
2021/11/25 00:06:14;;;;;;;;;;;23.40;51.90;;;;;;1573791;74;1195;-61
2021/11/25 00:08:17;;;;;;;;;;;23.50;52.00;;;;;;1571525;75;720;-59
2021/11/25 00:10:19;;;;;;;;;;;23.40;51.80;;;;;;1565806;74;776;-61
2021/11/25 00:12:21;;;;;;;;;;;23.40;51.80;;;;;;1560030;74;774;-60
2021/11/25 00:14:23;;;;;;;;;;;23.50;52.00;;;;;;1569863;75;1927;-60
2021/11/25 00:16:25;;;;;;;;;;;23.40;51.80;;;;;;1565130;75;1156;-59
2021/11/25 00:18:26;;;;;;;;;;;23.40;51.80;;;;;;1573825;75;728;-60
2021/11/25 00:20:28;;;;;;;;;;;23.40;51.80;;;;;;1570980;75;785;-59
2021/11/25 00:22:30;;;;;;;;;;;23.40;51.80;;;;;;1555377;74;717;-61
2021/11/25 00:24:32;;;;;;;;;;;23.30;51.80;;;;;;1565031;74;775;-61
2021/11/25 00:26:34;;;;;;;;;;;23.40;51.80;;;;;;1563414;75;1149;-60
2021/11/25 00:28:36;;;;;;;;;;;23.40;51.80;;;;;;1567512;75;760;-59
2021/11/25 00:30:38;;;;;;;;;;;23.30;51.80;;;;;;1579591;75;752;-61
2021/11/25 00:32:40;;;;;;;;;;;23.30;51.80;;;;;;1563554;74;821;-61
2021/11/25 00:34:42;;;;;;;;;;;23.40;51.70;;;;;;1569939;75;1913;-61
2021/11/25 00:36:44;;;;;;;;;;;23.30;51.70;;;;;;1558483;75;1186;-59
2021/11/25 00:38:46;;;;;;;;;;;23.30;51.80;;;;;;1566367;75;745;-60
2021/11/25 00:40:48;;;;;;;;;;;23.40;51.70;;;;;;1562810;75;787;-60
2021/11/25 00:42:50;;;;;;;;;;;23.40;51.80;;;;;;1568858;74;738;-60
2021/11/25 00:44:52;;;;;;;;;;;23.40;51.70;;;;;;1568860;75;814;-59
2021/11/25 00:46:54;;;;;;;;;;;23.40;51.70;;;;;;1569769;75;1169;-60
2021/11/25 00:48:56;;;;;;;;;;;23.40;51.70;;;;;;1572031;75;753;-61
2021/11/25 00:50:58;;;;;;;;;;;23.40;51.70;;;;;;1557898;75;790;-60
2021/11/25 00:53:00;;;;;;;;;;;23.40;51.70;;;;;;1558802;74;742;-61
2021/11/25 00:55:02;;;;;;;;;;;23.40;51.60;;;;;;1570045;74;1950;-60
2021/11/25 00:57:04;;;;;;;;;;;23.40;51.70;;;;;;1569950;74;1188;-60
2021/11/25 00:59:06;;;;;;;;;;;23.30;51.70;;;;;;1559726;75;737;-60
2021/11/25 01:01:08;;;;;;;;;;;23.40;51.60;;;;;;1560610;75;710;-61
2021/11/25 01:03:10;;;;;;;;;;;23.40;51.60;;;;;;1562611;74;750;-61
2021/11/25 01:05:13;;;;;;;;;;;23.40;51.60;;;;;;1559761;75;732;-61
2021/11/25 01:07:15;;;;;;;;;;;23.40;51.70;;;;;;1566264;75;1111;-60
2021/11/25 01:09:17;;;;;;;;;;;23.40;51.60;;;;;;1564646;75;762;-61
2021/11/25 01:11:21;;;;;;;;;;;23.40;51.60;;;;;;1568597;74;762;-61
2021/11/25 01:13:22;;;;;;;;;;;23.40;51.60;;;;;;1567919;75;1610;-60
2021/11/25 01:15:29;;;;;;;;;;;23.30;51.50;;;;;;1566915;75;1940;-61
2021/11/25 01:17:29;;;;;;;;;;;23.40;51.60;;;;;;1564543;75;1410;-59
2021/11/25 01:19:31;;;;;;;;;;;23.30;51.60;;;;;;1572020;74;792;-62
2021/11/25 01:21:32;;;;;;;;;;;23.30;51.60;;;;;;1572579;75;784;-61
2021/11/25 01:23:34;;;;;;;;;;;23.30;51.60;;;;;;1560560;75;700;-59
2021/11/25 01:25:36;;;;;;;;;;;23.40;51.60;;;;;;1565613;74;1160;-61
2021/11/25 01:27:38;;;;;;;;;;;23.40;51.70;;;;;;1578506;75;793;-60
2021/11/25 01:29:40;;;;;;;;;;;23.30;51.70;;;;;;1563549;75;798;-59
2021/11/25 01:31:42;;;;;;;;;;;23.30;51.70;;;;;;1568500;75;795;-60
2021/11/25 01:33:44;;;;;;;;;;;23.30;51.80;;;;;;1562996;74;696;-60
2021/11/25 01:35:46;;;;;;;;;;;23.40;51.80;;;;;;1559245;75;1937;-60
2021/11/25 01:37:50;;;;;;;;;;;23.30;51.80;;;;;;1560803;75;739;-60
2021/11/25 01:39:51;;;;;;;;;;;23.40;51.80;;;;;;1571665;75;1660;-60
2021/11/25 01:41:53;;;;;;;;;;;23.40;51.80;;;;;;1553491;75;814;-60
2021/11/25 01:43:55;;;;;;;;;;;23.40;51.80;;;;;;1544777;74;697;-61
2021/11/25 01:45:57;;;;;;;;;;;23.30;51.80;;;;;;1537949;76;1166;-60
2021/11/25 01:47:59;;;;;;;;;;;23.30;51.80;;;;;;1559112;75;724;-59
2021/11/25 01:50:01;;;;;;;;;;;23.30;51.70;;;;;;1550068;75;668;-59
2021/11/25 01:52:03;;;;;;;;;;;23.40;51.70;;;;;;1543723;74;719;-59
2021/11/25 01:54:05;;;;;;;;;;;23.40;51.60;;;;;;1551560;75;726;-60
2021/11/25 01:56:08;;;;;;;;;;;23.40;51.60;;;;;;1537062;74;1953;-60
2021/11/25 01:58:10;;;;;;;;;;;23.30;51.60;;;;;;1531252;75;693;-60
2021/11/25 02:00:16;;;;;;;;;;;23.40;51.60;;;;;;1538705;75;704;-59
2021/11/25 02:02:18;;;;;;;;;;;23.30;51.60;;;;;;1532348;75;884;-60
2021/11/25 02:04:20;;;;;;;;;;;23.30;51.70;;;;;;1538506;75;768;-59
2021/11/25 02:06:22;;;;;;;;;;;23.40;51.60;;;;;;1535571;75;1173;-60
2021/11/25 02:08:23;;;;;;;;;;;23.40;51.60;;;;;;1550846;75;723;-60
2021/11/25 02:10:25;;;;;;;;;;;23.40;51.60;;;;;;1539881;75;778;-60
2021/11/25 02:12:27;;;;;;;;;;;23.30;51.60;;;;;;1522911;75;750;-58
2021/11/25 02:14:29;;;;;;;;;;;23.40;51.60;;;;;;1552538;76;803;-59
2021/11/25 02:16:31;;;;;;;;;;;23.30;51.60;;;;;;1548104;75;1932;-60
2021/11/25 02:18:33;;;;;;;;;;;23.30;51.60;;;;;;1546006;76;651;-59
2021/11/25 02:20:35;;;;;;;;;;;23.40;51.60;;;;;;1535875;75;758;-60
2021/11/25 02:22:38;;;;;;;;;;;23.30;51.60;;;;;;1561598;75;803;-59
2021/11/25 02:24:40;;;;;;;;;;;23.40;51.60;;;;;;1543740;75;701;-59
2021/11/25 02:26:41;;;;;;;;;;;23.40;51.50;;;;;;1534054;76;1135;-59
2021/11/25 02:28:43;;;;;;;;;;;23.30;51.50;;;;;;1556662;75;689;-60
2021/11/25 02:30:45;;;;;;;;;;;23.30;51.50;;;;;;1553542;76;745;-59
2021/11/25 02:32:47;;;;;;;;;;;23.40;51.40;;;;;;1551091;75;741;-61
2021/11/25 02:34:49;;;;;;;;;;;23.40;51.50;;;;;;1542916;75;723;-60
2021/11/25 02:36:51;;;;;;;;;;;23.40;51.50;;;;;;1535866;75;1948;-60
2021/11/25 02:38:53;;;;;;;;;;;23.30;51.50;;;;;;1534730;76;781;-61
2021/11/25 02:40:55;;;;;;;;;;;23.40;51.50;;;;;;1530564;75;739;-61
2021/11/25 02:42:58;;;;;;;;;;;23.30;51.50;;;;;;1553545;75;668;-60
2021/11/25 02:45:00;;;;;;;;;;;23.30;51.50;;;;;;1540760;76;722;-60
2021/11/25 02:47:02;;;;;;;;;;;23.40;51.50;;;;;;1555900;76;1126;-60
2021/11/25 02:49:04;;;;;;;;;;;23.30;51.60;;;;;;1537634;76;787;-60
2021/11/25 02:51:06;;;;;;;;;;;23.30;51.50;;;;;;1534073;75;722;-60
2021/11/25 02:53:09;;;;;;;;;;;23.30;51.60;;;;;;1533601;76;777;-60
2021/11/25 02:55:11;;;;;;;;;;;23.30;51.60;;;;;;1548359;75;1926;-61
2021/11/25 02:57:13;;;;;;;;;;;23.30;51.60;;;;;;1545378;75;1167;-61
2021/11/25 02:59:14;;;;;;;;;;;23.30;51.70;;;;;;1560877;74;755;-61
2021/11/25 03:01:21;;;;;;;;;;;23.30;51.70;;;;;;1553625;75;695;-60
2021/11/25 03:03:23;;;;;;;;;;;23.30;51.70;;;;;;1544670;74;760;-59
2021/11/25 03:05:25;;;;;;;;;;;23.30;51.80;;;;;;1558777;75;692;-61
2021/11/25 03:07:27;;;;;;;;;;;23.30;51.70;;;;;;1569153;75;1260;-60
2021/11/25 03:09:28;;;;;;;;;;;23.30;51.80;;;;;;1567197;75;779;-60
2021/11/25 03:11:30;;;;;;;;;;;23.20;51.60;;;;;;1549467;74;707;-59
2021/11/25 03:13:32;;;;;;;;;;;23.20;51.70;;;;;;1558355;75;757;-60
2021/11/25 03:15:35;;;;;;;;;;;23.30;51.70;;;;;;1548328;75;1933;-59
2021/11/25 03:17:40;;;;;;;;;;;23.30;51.70;;;;;;1570264;74;729;-60
2021/11/25 03:19:41;;;;;;;;;;;23.30;51.70;;;;;;1563369;74;711;-61
2021/11/25 03:21:43;;;;;;;;;;;23.30;51.70;;;;;;1560741;75;732;-61
2021/11/25 03:23:46;;;;;;;;;;;23.30;51.80;;;;;;1559858;75;748;-61
2021/11/25 03:25:48;;;;;;;;;;;23.20;51.60;;;;;;1571172;74;1155;-60
2021/11/25 03:27:50;;;;;;;;;;;23.30;51.70;;;;;;1567664;74;694;-59
2021/11/25 03:29:52;;;;;;;;;;;23.30;51.70;;;;;;1578571;74;682;-60
2021/11/25 03:31:54;;;;;;;;;;;23.30;51.70;;;;;;1561324;74;710;-60
2021/11/25 03:33:56;;;;;;;;;;;23.30;51.70;;;;;;1566644;74;772;-60
2021/11/25 03:35:58;;;;;;;;;;;23.30;51.70;;;;;;1559800;75;1937;-59
2021/11/25 03:38:00;;;;;;;;;;;23.30;51.70;;;;;;1546159;74;676;-60
2021/11/25 03:40:03;;;;;;;;;;;23.30;51.70;;;;;;1550578;75;724;-60
2021/11/25 03:42:05;;;;;;;;;;;23.30;51.70;;;;;;1557691;75;658;-61
2021/11/25 03:44:07;;;;;;;;;;;23.30;51.70;;;;;;1558845;74;703;-60
2021/11/25 03:46:09;;;;;;;;;;;23.30;51.70;;;;;;1568251;74;1152;-60
2021/11/25 03:48:11;;;;;;;;;;;23.30;51.60;;;;;;1550046;74;708;-59
2021/11/25 03:50:13;;;;;;;;;;;23.40;51.70;;;;;;1565412;74;719;-61
2021/11/25 03:52:15;;;;;;;;;;;23.40;51.50;;;;;;1563136;74;675;-59
2021/11/25 03:54:17;;;;;;;;;;;23.50;51.50;;;;;;1565045;74;666;-59
2021/11/25 03:56:19;;;;;;;;;;;23.50;51.50;;;;;;1569017;74;1925;-59
2021/11/25 03:58:21;;;;;;;;;;;23.50;51.50;;;;;;1561695;75;938;-60
2021/11/25 04:00:23;;;;;;;;;;;23.50;51.50;;;;;;1558906;75;726;-60
2021/11/25 04:02:25;;;;;;;;;;;23.40;51.40;;;;;;1546778;74;812;-59
2021/11/25 04:04:27;;;;;;;;;;;23.50;51.50;;;;;;1557045;75;740;-60
2021/11/25 04:06:29;;;;;;;;;;;23.50;51.40;;;;;;1560161;75;1163;-60
2021/11/25 04:08:30;;;;;;;;;;;23.50;51.40;;;;;;1552047;75;787;-61
2021/11/25 04:10:32;;;;;;;;;;;23.50;51.40;;;;;;1556577;75;779;-59
2021/11/25 04:12:34;;;;;;;;;;;23.50;51.30;;;;;;1552934;74;682;-60
2021/11/25 04:14:36;;;;;;;;;;;23.60;51.30;;;;;;1545213;75;775;-60
2021/11/25 04:16:38;;;;;;;;;;;23.60;51.30;;;;;;1561192;75;1956;-60
2021/11/25 04:18:40;;;;;;;;;;;23.60;51.20;;;;;;1549635;75;791;-61
2021/11/25 04:20:42;;;;;;;;;;;23.60;51.20;;;;;;1551920;74;784;-60
2021/11/25 04:22:44;;;;;;;;;;;23.60;51.10;;;;;;1554840;75;819;-60
2021/11/25 04:24:45;;;;;;;;;;;23.60;51.10;;;;;;1550319;74;784;-59
2021/11/25 04:26:47;;;;;;;;;;;23.60;51.00;;;;;;1565229;75;1150;-60
2021/11/25 04:28:49;;;;;;;;;;;23.60;51.00;;;;;;1551477;75;703;-59
2021/11/25 04:35:27;;;;;;;;;;;23.60;50.90;;;;;;1557105;74;746;-59
2021/11/25 04:35:34;;;;;;;;;;;23.60;50.90;;;;;;1570930;75;1628;-60
2021/11/25 04:37:36;;;;;;;;;;;23.70;51.00;;;;;;1550071;75;1904;-59
2021/11/25 04:39:38;;;;;;;;;;;23.60;50.90;;;;;;1568418;74;733;-60
2021/11/25 04:41:40;;;;;;;;;;;23.70;51.00;;;;;;1539873;75;729;-59
2021/11/25 04:43:42;;;;;;;;;;;23.60;50.80;;;;;;1556828;75;777;-59
2021/11/25 04:45:44;;;;;;;;;;;23.60;50.80;;;;;;1552724;75;1166;-59
2021/11/25 04:47:46;;;;;;;;;;;23.60;50.90;;;;;;1563337;74;720;-60
2021/11/25 04:49:48;;;;;;;;;;;23.60;50.80;;;;;;1554834;75;739;-60
2021/11/25 04:51:50;;;;;;;;;;;23.60;50.80;;;;;;1546151;75;789;-61
2021/11/25 04:53:53;;;;;;;;;;;23.70;50.90;;;;;;1560648;75;685;-59
2021/11/25 04:55:55;;;;;;;;;;;23.60;50.80;;;;;;1545589;74;1942;-60
2021/11/25 04:57:57;;;;;;;;;;;23.60;50.80;;;;;;1552483;75;1085;-60
2021/11/25 04:59:59;;;;;;;;;;;23.70;50.90;;;;;;1551494;75;717;-59
2021/11/25 05:02:01;;;;;;;;;;;23.60;50.80;;;;;;1543353;75;653;-59
2021/11/25 05:04:02;;;;;;;;;;;23.70;50.90;;;;;;1542690;74;781;-61
2021/11/25 05:06:04;;;;;;;;;;;23.60;50.80;;;;;;1555597;75;1158;-60
2021/11/25 05:08:06;;;;;;;;;;;23.70;50.90;;;;;;1542787;75;618;-61
2021/11/25 05:10:08;;;;;;;;;;;23.70;50.80;;;;;;1551839;75;683;-61
2021/11/25 05:12:10;;;;;;;;;;;23.70;50.70;;;;;;1551174;74;728;-59
2021/11/25 05:14:12;;;;;;;;;;;23.60;50.70;;;;;;1533877;75;754;-61
2021/11/25 05:16:14;;;;;;;;;;;23.60;50.70;;;;;;1544882;75;1942;-60
2021/11/25 05:18:16;;;;;;;;;;;23.70;50.80;;;;;;1548045;75;663;-60
2021/11/25 05:20:18;;;;;;;;;;;23.70;50.80;;;;;;1548220;75;745;-59
2021/11/25 05:22:20;;;;;;;;;;;23.60;50.70;;;;;;1563712;74;734;-60
2021/11/25 05:24:22;;;;;;;;;;;23.60;50.70;;;;;;1554739;75;639;-61
2021/11/25 05:26:24;;;;;;;;;;;23.70;50.80;;;;;;1544580;76;1143;-60
2021/11/25 05:28:26;;;;;;;;;;;23.80;50.70;;;;;;1547679;75;763;-61
2021/11/25 05:30:31;;;;;;;;;;;23.70;50.70;;;;;;1557825;75;778;-60
2021/11/25 05:32:31;;;;;;;;;;;23.70;50.70;;;;;;1553482;76;1701;-61
2021/11/25 05:34:33;;;;;;;;;;;23.70;50.80;;;;;;1534950;74;687;-60
2021/11/25 05:36:35;;;;;;;;;;;23.70;50.70;;;;;;1566198;75;1938;-60
2021/11/25 05:38:37;;;;;;;;;;;23.70;50.70;;;;;;1559412;75;769;-61
2021/11/25 05:40:38;;;;;;;;;;;23.70;50.70;;;;;;1554296;75;785;-60
2021/11/25 05:42:40;;;;;;;;;;;23.70;50.70;;;;;;1546407;75;686;-60
2021/11/25 05:44:43;;;;;;;;;;;23.70;50.80;;;;;;1553797;74;784;-59
2021/11/25 05:46:45;;;;;;;;;;;23.70;50.70;;;;;;1551881;75;1126;-59
2021/11/25 05:48:46;;;;;;;;;;;23.60;50.60;;;;;;1554843;75;715;-60
2021/11/25 05:50:49;;;;;;;;;;;23.70;50.70;;;;;;1553525;76;727;-61
2021/11/25 05:52:52;;;;;;;;;;;23.70;50.70;;;;;;1559411;74;790;-60
2021/11/25 05:54:54;;;;;;;;;;;23.60;50.60;;;;;;1558695;74;791;-60
2021/11/25 05:56:56;;;;;;;;;;;23.70;50.70;;;;;;1560924;75;1913;-59
2021/11/25 05:58:59;;;;;;;;;;;23.60;50.70;;;;;;1529746;75;1062;-60
2021/11/25 06:01:02;;;;;;;;;;;23.60;50.70;;;;;;1514946;77;678;-60
2021/11/25 06:03:03;;;;;;;;;;;23.60;50.70;;;;;;1516121;77;750;-60
2021/11/25 06:05:06;;;;;;;;;;;23.60;50.70;;;;;;1518923;77;716;-60
2021/11/25 06:07:07;;;;;;;;;;;23.60;50.70;;;;;;1509097;77;1160;-61
2021/11/25 06:09:09;;;;;;;;;;;23.70;50.90;;;;;;1506438;77;696;-62
2021/11/25 06:11:11;;;;;;;;;;;23.60;50.80;;;;;;1529198;77;720;-61
2021/11/25 06:13:13;;;;;;;;;;;23.60;50.80;;;;;;1527002;77;781;-61
2021/11/25 06:15:15;;;;;;;;;;;23.60;50.80;;;;;;1512263;77;712;-59
2021/11/25 06:17:17;;;;;;;;;;;23.60;50.90;;;;;;1516245;77;1956;-60
2021/11/25 06:19:19;;;;;;;;;;;23.60;50.90;;;;;;1528347;77;739;-60
2021/11/25 06:21:21;;;;;;;;;;;23.60;51.00;;;;;;1530457;77;789;-61
2021/11/25 06:23:22;;;;;;;;;;;23.60;50.90;;;;;;1521956;77;725;-61
2021/11/25 06:25:25;;;;;;;;;;;23.60;50.80;;;;;;1517463;77;903;-60
2021/11/25 06:27:27;;;;;;;;;;;23.70;50.90;;;;;;1517981;77;1160;-60
2021/11/25 06:29:29;;;;;;;;;;;23.70;50.80;;;;;;1516971;77;744;-61
2021/11/25 06:31:31;;;;;;;;;;;23.60;50.90;;;;;;1513431;77;636;-60
2021/11/25 06:33:32;;;;;;;;;;;23.60;51.00;;;;;;1523068;77;724;-60
2021/11/25 06:35:34;;;;;;;;;;;23.50;51.40;;;;;;1512359;76;1175;-61
2021/11/25 06:37:41;;;;;;;;;;;23.50;51.50;;;;;;1508542;77;1930;-60
2021/11/25 06:39:43;;;;;;;;;;;23.50;51.50;;;;;;1518674;77;1890;-60
2021/11/25 06:41:44;;;;;;;;;;;23.60;51.30;;;;;;1524278;77;677;-61
2021/11/25 06:43:46;;;;;;;;;;;23.60;51.30;;;;;;1499458;77;810;-61
2021/11/25 06:45:48;;;;;;;;;;;23.70;51.20;;;;;;1504496;77;1097;-60
2021/11/25 06:47:50;;;;;;;;;;;23.70;51.10;;;;;;1530396;77;766;-60
2021/11/25 06:49:52;;;;;;;;;;;23.70;51.00;;;;;;1520819;77;787;-61
2021/11/25 06:51:54;;;;;;;;;;;23.80;50.90;;;;;;1525615;77;749;-60
2021/11/25 06:53:56;;;;;;;;;;;23.70;50.80;;;;;;1530180;77;731;-60
2021/11/25 06:55:57;;;;;;;;;;;23.70;50.80;;;;;;1526952;77;1159;-60
2021/11/25 06:57:59;;;;;;;;;;;23.70;50.70;;;;;;1528971;77;1930;-61
2021/11/25 07:00:04;;;;;;;;;;;23.80;50.80;;;;;;1563715;75;1043;-60
2021/11/25 07:02:05;;;;;;;;;;;23.80;50.80;;;;;;1566518;75;1708;-60
2021/11/25 07:04:07;;;;;;;;;;;23.90;50.80;;;;;;1559450;75;662;-60
2021/11/25 07:06:09;;;;;;;;;;;23.80;50.70;;;;;;1567459;75;1179;-61
2021/11/25 07:08:11;;;;;;;;;;;23.80;50.90;;;;;;1558280;75;725;-61
2021/11/25 07:10:13;;;;;;;;;;;23.80;50.90;;;;;;1558741;75;804;-61
2021/11/25 07:12:15;;;;;;;;;;;23.80;50.90;;;;;;1552138;75;789;-61
2021/11/25 07:14:17;;;;;;;;;;;23.70;51.00;;;;;;1557896;75;697;-61
2021/11/25 07:16:19;;;;;;;;;;;23.70;51.00;;;;;;1564442;75;1183;-61
2021/11/25 07:18:21;;;;;;;;;;;23.70;51.00;;;;;;1559895;75;1953;-61
2021/11/25 07:20:23;;;;;;;;;;;23.80;51.00;;;;;;1560880;75;766;-61
2021/11/25 07:22:26;;;;;;;;;;;23.70;51.00;;;;;;1553282;75;810;-61
2021/11/25 07:24:28;;;;;;;;;;;23.70;51.00;;;;;;1560306;75;770;-61
2021/11/25 07:26:30;;;;;;;;;;;23.80;51.10;;;;;;1564154;75;1173;-61
2021/11/25 07:28:31;;;;;;;;;;;23.70;51.20;;;;;;1563601;75;734;-60
2021/11/25 07:30:33;;;;;;;;;;;23.70;51.20;;;;;;1557068;75;838;-61
2021/11/25 07:32:35;;;;;;;;;;;23.80;51.20;;;;;;1556652;75;785;-61
2021/11/25 07:34:37;;;;;;;;;;;23.80;51.30;;;;;;1525316;75;711;-59
2021/11/25 07:36:39;;;;;;;;;;;23.80;51.10;;;;;;1558656;75;1120;-60
2021/11/25 07:38:41;;;;;;;;;;;23.70;50.90;;;;;;1564699;75;1916;-59
2021/11/25 07:40:44;;;;;;;;;;;23.70;51.10;;;;;;1558616;75;676;-60
2021/11/25 07:42:46;;;;;;;;;;;23.70;51.20;;;;;;1547011;75;711;-60
2021/11/25 07:44:48;;;;;;;;;;;23.70;51.10;;;;;;1560099;75;749;-58
2021/11/25 07:46:50;;;;;;;;;;;23.60;51.00;;;;;;1557713;75;1129;-60
2021/11/25 07:48:52;;;;;;;;;;;23.60;50.90;;;;;;1548133;76;700;-60
2021/11/25 07:50:54;;;;;;;;;;;23.60;51.10;;;;;;1526939;76;718;-60
2021/11/25 07:52:56;;;;;;;;;;;23.60;51.00;;;;;;1540835;75;727;-59
2021/11/25 07:54:58;;;;;;;;;;;23.50;50.90;;;;;;1533607;75;743;-59
2021/11/25 07:57:01;;;;;;;;;;;23.50;50.10;;;;;;1523821;76;1952;-60
2021/11/25 07:59:03;;;;;;;;;;;23.40;48.60;;;;;;1555499;76;1455;-59
2021/11/25 08:01:04;;;;;;;;;;;23.40;48.00;;;;;;1559332;75;723;-57
2021/11/25 08:03:06;;;;;;;;;;;23.30;47.20;;;;;;1542297;75;672;-58
2021/11/25 08:05:08;;;;;;;;;;;23.30;45.50;;;;;;1550604;74;716;-59
2021/11/25 08:07:10;;;;;;;;;;;23.30;46.50;;;;;;1551418;75;1170;-59
2021/11/25 08:09:12;;;;;;;;;;;23.20;47.30;;;;;;1561139;74;760;-59
2021/11/25 08:11:14;;;;;;;;;;;23.30;47.60;;;;;;1557235;75;865;-59
2021/11/25 08:13:16;;;;;;;;;;;23.20;47.80;;;;;;1562235;74;781;-60
2021/11/25 08:15:18;;;;;;;;;;;23.20;47.90;;;;;;1561851;75;674;-61
2021/11/25 08:17:20;;;;;;;;;;;23.20;48.10;;;;;;1566324;74;1948;-60
2021/11/25 08:19:21;;;;;;;;;;;23.30;48.30;;;;;;1571300;74;888;-59
2021/11/25 08:21:23;;;;;;;;;;;23.30;48.40;;;;;;1564176;74;682;-60
2021/11/25 08:23:25;;;;;;;;;;;23.30;48.50;;;;;;1553391;75;804;-59
2021/11/25 08:25:27;;;;;;;;;;;23.30;48.50;;;;;;1573056;74;735;-59
2021/11/25 08:27:30;;;;;;;;;;;23.30;48.60;;;;;;1559080;75;1168;-59
2021/11/25 08:29:31;;;;;;;;;;;23.30;48.60;;;;;;1570637;74;745;-59
2021/11/25 08:31:33;;;;;;;;;;;23.30;48.60;;;;;;1578293;74;758;-60
2021/11/25 08:33:35;;;;;;;;;;;23.30;48.70;;;;;;1554983;74;659;-60
2021/11/25 08:35:37;;;;;;;;;;;23.30;48.70;;;;;;1554949;75;1129;-60
2021/11/25 08:37:39;;;;;;;;;;;23.40;48.70;;;;;;1573463;74;1932;-59
2021/11/25 08:39:41;;;;;;;;;;;23.30;48.70;;;;;;1555602;74;718;-59
2021/11/25 08:41:43;;;;;;;;;;;23.30;48.70;;;;;;1552019;74;712;-59
2021/11/25 08:43:45;;;;;;;;;;;23.30;48.70;;;;;;1551315;74;730;-60
2021/11/25 08:45:47;;;;;;;;;;;23.30;48.80;;;;;;1551412;75;1150;-59
2021/11/25 08:47:49;;;;;;;;;;;23.40;48.80;;;;;;1557304;75;715;-58
2021/11/25 08:49:51;;;;;;;;;;;23.40;48.80;;;;;;1570855;74;696;-60
2021/11/25 08:51:53;;;;;;;;;;;23.40;48.80;;;;;;1557714;74;787;-60
2021/11/25 08:53:57;;;;;;;;;;;23.40;48.70;;;;;;1564077;74;719;-61
2021/11/25 08:55:58;;;;;;;;;;;23.50;48.90;;;;;;1556661;74;1154;-59
2021/11/25 08:58:00;;;;;;;;;;;23.50;48.90;;;;;;1564897;76;1938;-59
2021/11/25 09:00:02;;;;;;;;;;;23.50;48.80;;;;;;1564061;74;1094;-60
2021/11/25 09:02:04;;;;;;;;;;;23.50;48.80;;;;;;1542926;76;715;-58
2021/11/25 09:04:06;;;;;;;;;;;23.60;48.80;;;;;;1532311;76;748;-60
2021/11/25 09:06:08;;;;;;;;;;;23.50;48.70;;;;;;1541712;76;1190;-60
2021/11/25 09:08:10;;;;;;;;;;;23.60;48.80;;;;;;1529296;76;801;-60
2021/11/25 09:10:11;;;;;;;;;;;23.50;48.80;;;;;;1525020;76;665;-59
2021/11/25 09:12:13;;;;;;;;;;;23.60;48.80;;;;;;1535284;76;805;-59
2021/11/25 09:14:15;;;;;;;;;;;23.60;48.70;;;;;;1536323;76;636;-59
2021/11/25 09:16:17;;;;;;;;;;;23.60;48.70;;;;;;1550938;76;1151;-59
2021/11/25 09:18:19;;;;;;;;;;;23.60;48.70;;;;;;1541563;76;1915;-59
2021/11/25 09:20:21;;;;;;;;;;;23.60;48.60;;;;;;1534535;76;645;-59
2021/11/25 09:22:23;;;;;;;;;;;23.70;48.70;;;;;;1545607;76;812;-58
2021/11/25 09:24:26;;;;;;;;;;;23.60;48.60;;;;;;1540170;76;762;-59
2021/11/25 09:26:28;;;;;;;;;;;23.60;48.70;;;;;;1541699;76;1141;-59
2021/11/25 09:28:30;;;;;;;;;;;23.60;48.60;;;;;;1529641;76;786;-60
2021/11/25 09:30:32;;;;;;;;;;;23.60;48.60;;;;;;1540157;76;724;-59
2021/11/25 09:32:33;;;;;;;;;;;23.60;48.60;;;;;;1529148;76;772;-59
2021/11/25 09:34:36;;;;;;;;;;;23.60;48.80;;;;;;1540132;76;660;-60
2021/11/25 09:36:39;;;;;;;;;;;23.60;48.70;;;;;;1549436;76;1087;-59
2021/11/25 09:38:41;;;;;;;;;;;23.60;48.70;;;;;;1532742;76;1924;-60
2021/11/25 09:40:43;;;;;;;;;;;23.60;48.80;;;;;;1523707;76;739;-59
2021/11/25 09:42:45;;;;;;;;;;;23.60;48.90;;;;;;1537688;76;730;-59
2021/11/25 09:44:47;;;;;;;;;;;23.60;48.80;;;;;;1534561;75;736;-60
2021/11/25 09:46:51;;;;;;;;;;;23.60;48.80;;;;;;1533271;76;1126;-60
2021/11/25 09:48:56;;;;;;;;;;;23.60;48.90;;;;;;1539145;76;1807;-60
2021/11/25 09:50:58;;;;;;;;;;;23.60;48.90;;;;;;1530018;76;909;-61
2021/11/25 09:53:01;;;;;;;;;;;23.50;49.00;;;;;;1519276;76;794;-60
2021/11/25 09:55:04;;;;;;;;;;;23.50;49.00;;;;;;1539445;76;757;-61
2021/11/25 09:57:06;;;;;;;;;;;23.60;49.00;;;;;;1534342;76;1152;-59
2021/11/25 09:59:08;;;;;;;;;;;23.50;49.10;;;;;;1536688;76;1916;-60
2021/11/25 10:01:10;;;;;;;;;;;23.50;49.10;;;;;;1545142;75;1175;-59
2021/11/25 10:03:16;;;;;;;;;;;23.50;49.10;;;;;;1550793;75;729;-61
2021/11/25 10:05:16;;;;;;;;;;;23.50;49.10;;;;;;1547215;75;1628;-60
2021/11/25 10:07:34;;;;;;;;;;;23.50;49.20;;;;;;1551071;76;1145;-61
2021/11/25 10:09:37;;;;;;;;;;;23.50;49.20;;;;;;1550678;76;761;-59
2021/11/25 10:11:39;;;;;;;;;;;23.40;49.20;;;;;;1533314;75;828;-59
2021/11/25 10:13:45;;;;;;;;;;;23.40;49.20;;;;;;1552031;75;716;-58
2021/11/25 10:15:50;;;;;;;;;;;23.50;49.30;;;;;;1550158;75;1148;-60
2021/11/25 10:17:51;;;;;;;;;;;23.50;49.30;;;;;;1540769;75;1929;-60
2021/11/25 10:20:06;;;;;;;;;;;23.40;49.20;;;;;;1545957;76;799;-60
2021/11/25 10:22:09;;;;;;;;;;;23.50;49.40;;;;;;1546217;75;725;-60
2021/11/25 10:24:11;;;;;;;;;;;23.40;49.20;;;;;;1553065;75;882;-60
2021/11/25 10:26:16;;;;;;;;;;;23.40;49.20;;;;;;1523578;75;1170;-60
2021/11/25 10:28:25;;;;;;;;;;;23.50;49.40;;;;;;1560393;75;924;-59
2021/11/25 10:30:27;;;;;;;;;;;23.40;49.30;;;;;;1556813;76;698;-59
2021/11/25 10:32:29;;;;;;;;;;;23.40;49.30;;;;;;1550723;76;696;-59
2021/11/25 10:34:38;;;;;;;;;;;23.50;49.40;;;;;;1550518;75;781;-58
2021/11/25 10:38:57;;;;;;;;;;;23.50;49.40;;;;;;1549023;76;1912;-57
2021/11/25 10:40:49;;;;;;;;;;;23.50;49.40;;;;;;1552753;76;1697;-59
2021/11/25 10:42:51;;;;;;;;;;;23.30;49.20;;;;;;1528566;75;722;-60
2021/11/25 10:44:53;;;;;;;;;;;23.50;49.40;;;;;;1529848;75;784;-59
2021/11/25 10:47:01;;;;;;;;;;;23.50;49.40;;;;;;1524534;76;1170;-58
2021/11/25 10:49:02;;;;;;;;;;;23.50;49.30;;;;;;1555224;76;1592;-59
2021/11/25 10:51:22;;;;;;;;;;;23.40;49.20;;;;;;1525696;75;734;-60
2021/11/25 10:53:24;;;;;;;;;;;23.50;49.20;;;;;;1553947;75;711;-61
2021/11/25 10:55:26;;;;;;;;;;;23.40;49.00;;;;;;1538532;75;905;-60
2021/11/25 10:57:29;;;;;;;;;;;23.40;47.30;;;;;;1540876;76;1148;-60
2021/11/25 10:59:36;;;;;;;;;;;23.30;48.00;;;;;;1546526;76;1988;-61
2021/11/25 11:01:39;;;;;;;;;;;23.40;48.10;;;;;;1527999;75;976;-60
2021/11/25 11:03:42;;;;;;;;;;;23.40;48.30;;;;;;1523855;75;748;-60
2021/11/25 11:05:59;;;;;;;;;;;23.30;48.40;;;;;;1544598;76;1545;-60
2021/11/25 11:08:05;;;;;;;;;;;23.40;48.40;;;;;;1542138;76;702;-60
2021/11/25 11:10:23;;;;;;;;;;;23.30;48.50;;;;;;1535777;76;908;-60
2021/11/25 11:12:42;;;;;;;;;;;23.30;48.60;;;;;;1552129;75;724;-60
2021/11/25 11:14:55;;;;;;;;;;;23.30;48.70;;;;;;1557683;74;1633;-59
2021/11/25 11:17:15;;;;;;;;;;;23.40;48.70;;;;;;1550763;76;1495;-59
2021/11/25 11:19:03;;;;;;;;;;;23.30;48.80;;;;;;1549670;76;1926;-59
2021/11/25 11:21:05;;;;;;;;;;;23.30;48.90;;;;;;1547507;75;717;-60
2021/11/25 11:23:07;;;;;;;;;;;23.30;48.80;;;;;;1533304;76;718;-58
2021/11/25 11:25:09;;;;;;;;;;;23.30;48.90;;;;;;1543519;75;656;-59
2021/11/25 11:27:11;;;;;;;;;;;23.30;48.90;;;;;;1539233;75;1120;-59
2021/11/25 11:29:13;;;;;;;;;;;23.30;48.90;;;;;;1545716;76;790;-59
2021/11/25 11:31:15;;;;;;;;;;;23.40;48.90;;;;;;1551869;75;717;-58
2021/11/25 11:33:17;;;;;;;;;;;23.30;48.90;;;;;;1540174;74;734;-60
2021/11/25 11:35:22;;;;;;;;;;;23.30;48.90;;;;;;1547442;75;771;-59
2021/11/25 11:37:23;;;;;;;;;;;23.30;48.90;;;;;;1525752;75;1533;-59
2021/11/25 11:39:25;;;;;;;;;;;23.30;48.90;;;;;;1549776;75;1905;-60
2021/11/25 11:41:30;;;;;;;;;;;23.30;48.90;;;;;;1540311;75;941;-59
2021/11/25 11:43:31;;;;;;;;;;;23.30;48.90;;;;;;1562549;75;1658;-60
2021/11/25 11:45:34;;;;;;;;;;;23.30;48.90;;;;;;1555490;75;1140;-60
2021/11/25 11:47:36;;;;;;;;;;;23.30;48.80;;;;;;1558290;75;900;-59
2021/11/25 11:49:43;;;;;;;;;;;23.20;48.80;;;;;;1544370;75;680;-59
2021/11/25 11:51:46;;;;;;;;;;;23.30;48.90;;;;;;1538386;75;791;-59
2021/11/25 11:53:56;;;;;;;;;;;23.30;48.90;;;;;;1519306;75;1646;-60
2021/11/25 11:55:59;;;;;;;;;;;23.30;48.90;;;;;;1526822;75;1530;-59
2021/11/25 11:58:01;;;;;;;;;;;23.20;48.80;;;;;;1541826;75;784;-61
2021/11/25 12:00:08;;;;;;;;;;;23.20;48.80;;;;;;1540536;75;1921;-60
2021/11/25 12:02:10;;;;;;;;;;;23.20;48.70;;;;;;1532345;75;1110;-59
2021/11/25 12:04:15;;;;;;;;;;;23.20;44.70;;;;;;1535648;75;724;-59
2021/11/25 12:06:37;;;;;;;;;;;23.10;44.00;;;;;;1550388;76;1167;-59
2021/11/25 12:08:39;;;;;;;;;;;23.10;45.40;;;;;;1532134;75;780;-59
2021/11/25 12:10:58;;;;;;;;;;;23.10;45.80;;;;;;1554547;75;743;-59
2021/11/25 12:13:04;;;;;;;;;;;23.10;46.00;;;;;;1545698;75;716;-59
2021/11/25 12:15:06;;;;;;;;;;;23.10;46.30;;;;;;1558607;75;726;-59